createdAt,value
2018-05-26T00:00:04.381Z,119
2018-05-26T00:05:04.382Z,119
2018-05-26T00:10:04.374Z,119
2018-05-26T00:15:04.396Z,119
2018-05-26T00:20:04.387Z,119
2018-05-26T00:25:04.399Z,119
2018-05-26T00:30:04.401Z,119
2018-05-26T00:35:04.393Z,119
2018-05-26T00:40:04.396Z,119
2018-05-26T00:45:04.412Z,119
2018-05-26T00:50:04.417Z,119
2018-05-26T00:55:04.409Z,119
2018-05-26T01:00:04.416Z,119
2018-05-26T01:05:04.427Z,119
2018-05-26T01:10:04.429Z,119
2018-05-26T01:15:04.419Z,119
2018-05-26T01:20:04.434Z,119
2018-05-26T01:25:03.417Z,119
2018-05-26T01:30:03.420Z,119
2018-05-26T01:35:03.455Z,119
2018-05-26T01:40:03.432Z,119
2018-05-26T01:45:03.421Z,119
2018-05-26T01:50:03.456Z,119
2018-05-26T01:55:03.429Z,119
2018-05-26T02:00:03.434Z,119
2018-05-26T02:05:03.440Z,119
2018-05-26T02:10:03.446Z,119
2018-05-26T02:15:03.444Z,119
2018-05-26T02:20:03.448Z,119
2018-05-26T02:25:03.465Z,119
2018-05-26T02:30:03.454Z,119
2018-05-26T02:35:03.455Z,119
2018-05-26T02:40:03.480Z,119
2018-05-26T02:45:03.463Z,119
2018-05-26T02:50:03.467Z,119
2018-05-26T02:55:03.497Z,119
2018-05-26T03:00:03.468Z,119
2018-05-26T03:05:03.480Z,119
2018-05-26T03:10:03.495Z,119
2018-05-26T03:15:03.485Z,119
2018-05-26T03:20:03.472Z,119
2018-05-26T03:25:03.499Z,119
2018-05-26T03:30:03.485Z,119
2018-05-26T03:35:03.487Z,119
2018-05-26T03:40:03.503Z,119
2018-05-26T03:45:03.494Z,119
2018-05-26T03:50:03.490Z,119
2018-05-26T03:55:03.503Z,119
2018-05-26T04:00:03.508Z,119
2018-05-26T04:05:03.502Z,119
2018-05-26T04:10:03.506Z,119
2018-05-26T04:15:03.518Z,119
2018-05-26T04:20:03.520Z,119
2018-05-26T04:25:03.510Z,119
2018-05-26T04:30:03.524Z,119
2018-05-26T04:35:03.522Z,119
2018-05-26T04:40:03.532Z,119
2018-05-26T04:45:03.542Z,119
2018-05-26T04:50:03.528Z,119
2018-05-26T04:55:03.526Z,119
2018-05-26T05:00:03.527Z,119
2018-05-26T05:05:03.550Z,119
2018-05-26T05:10:03.535Z,119
2018-05-26T05:15:03.535Z,119
2018-05-26T05:20:03.565Z,119
2018-05-26T05:25:03.550Z,119
2018-05-26T05:30:03.552Z,119
2018-05-26T05:35:03.560Z,119
2018-05-26T05:40:03.570Z,119
2018-05-26T05:45:03.563Z,119
2018-05-26T05:50:03.556Z,119
2018-05-26T05:55:03.565Z,119
2018-05-26T06:00:03.559Z,119
2018-05-26T06:05:03.569Z,119
2018-05-26T06:10:03.586Z,119
2018-05-26T06:15:03.642Z,119
2018-05-26T06:20:03.580Z,119
2018-05-26T06:25:03.592Z,119
2018-05-26T06:30:03.580Z,119
2018-05-26T06:35:03.584Z,119
2018-05-26T06:40:03.598Z,119
2018-05-26T06:45:03.599Z,119
2018-05-26T06:50:03.592Z,119
2018-05-26T06:55:03.604Z,119
2018-05-26T07:00:03.596Z,108.23
2018-05-26T07:05:03.596Z,107.38
2018-05-26T07:10:03.623Z,101.14
2018-05-26T07:15:03.608Z,89.46
2018-05-26T07:20:03.600Z,87.44
2018-05-26T07:25:03.625Z,74.49
2018-05-26T07:30:03.609Z,78.04
2018-05-26T07:35:03.617Z,70.68
2018-05-26T07:40:03.632Z,65.19
2018-05-26T07:45:03.624Z,66.29
2018-05-26T07:50:03.617Z,63.87
2018-05-26T07:55:03.630Z,68.14
2018-05-26T08:00:03.642Z,60.7
2018-05-26T08:05:03.628Z,59.93
2018-05-26T08:10:03.649Z,61.92
2018-05-26T08:15:03.657Z,62.62
2018-05-26T08:20:03.641Z,62.73
2018-05-26T08:25:03.660Z,59.06
2018-05-26T08:30:03.666Z,55.76
2018-05-26T08:35:03.646Z,55.69
2018-05-26T08:40:03.759Z,55.24
2018-05-26T08:45:03.673Z,55.8
2018-05-26T08:50:03.671Z,52.41
2018-05-26T08:55:03.676Z,49.39
2018-05-26T09:00:03.668Z,50.77
2018-05-26T09:05:03.667Z,50.06
2018-05-26T09:10:03.688Z,48.16
2018-05-26T09:15:03.677Z,47.12
2018-05-26T09:20:03.666Z,47.25
2018-05-26T09:25:03.825Z,45.3
2018-05-26T09:30:03.682Z,45.61
2018-05-26T09:35:03.691Z,42.38
2018-05-26T09:40:03.788Z,42.92
2018-05-26T09:45:03.702Z,44.14
2018-05-26T09:50:03.691Z,47.16
2018-05-26T09:55:03.698Z,48.35
2018-05-26T10:00:03.711Z,48.09
2018-05-26T10:05:03.704Z,48.61
2018-05-26T10:10:03.694Z,46.1
2018-05-26T10:15:03.710Z,42.85
2018-05-26T10:20:03.712Z,42.6
2018-05-26T10:25:03.715Z,38.75
2018-05-26T10:30:03.839Z,39.93
2018-05-26T10:35:03.721Z,39.03
2018-05-26T10:40:03.716Z,38.55
2018-05-26T10:45:03.744Z,39.39
2018-05-26T10:50:03.803Z,38.96
2018-05-26T10:55:03.734Z,39.66
2018-05-26T11:00:03.741Z,40.7
2018-05-26T11:05:03.730Z,39.08
2018-05-26T11:10:03.733Z,39.21
2018-05-26T11:15:03.754Z,32.53
2018-05-26T11:20:03.733Z,31.03
2018-05-26T11:25:03.730Z,28.56
2018-05-26T11:30:03.750Z,28.29
2018-05-26T11:35:03.752Z,25.3
2018-05-26T11:40:03.745Z,24.36
2018-05-26T11:45:03.758Z,22.35
2018-05-26T11:50:03.752Z,23.42
2018-05-26T11:55:03.760Z,24.25
2018-05-26T12:00:03.763Z,21.2
2018-05-26T12:05:03.863Z,23.59
2018-05-26T12:10:03.763Z,21.29
2018-05-26T12:15:03.827Z,20.97
2018-05-26T12:20:03.763Z,18.47
2018-05-26T12:25:03.778Z,19.25
2018-05-26T12:30:03.780Z,19.78
2018-05-26T12:35:03.766Z,21.75
2018-05-26T12:45:03.787Z,23.29
2018-05-26T12:50:03.775Z,20.65
2018-05-26T12:55:03.790Z,20.11
2018-05-26T13:00:03.805Z,20.49
2018-05-26T13:05:03.789Z,19
2018-05-26T13:10:03.793Z,19.56
2018-05-26T13:15:03.793Z,21.53
2018-05-26T13:20:03.813Z,22.2
2018-05-26T13:25:03.800Z,23.02
2018-05-26T13:30:03.805Z,28.12
2018-05-26T13:35:03.806Z,28.28
2018-05-26T13:40:03.828Z,28.5
2018-05-26T13:45:03.813Z,27.34
2018-05-26T13:50:03.814Z,27.01
2018-05-26T13:55:03.820Z,25.33
2018-05-26T14:00:03.835Z,29.7
2018-05-26T14:05:03.824Z,33.18
2018-05-26T14:10:03.829Z,36.47
2018-05-26T14:15:03.841Z,30.81
2018-05-26T14:20:03.832Z,26.08
2018-05-26T14:25:03.833Z,23.83
2018-05-26T14:30:03.847Z,19.53
2018-05-26T14:35:03.841Z,18.54
2018-05-26T14:40:03.833Z,19.22
2018-05-26T14:45:03.859Z,18.17
2018-05-26T14:50:03.968Z,18.26
2018-05-26T14:55:03.857Z,18.46
2018-05-26T15:00:03.865Z,20.27
2018-05-26T15:05:03.866Z,21.55
2018-05-26T15:10:03.867Z,21.65
2018-05-26T15:15:03.889Z,22.02
2018-05-26T15:20:03.874Z,19.64
2018-05-26T15:25:03.865Z,23.16
2018-05-26T15:30:03.885Z,21.16
2018-05-26T15:35:03.886Z,22.04
2018-05-26T15:40:03.892Z,20.97
2018-05-26T15:45:03.881Z,23.04
2018-05-26T15:50:04.006Z,26.28
2018-05-26T15:55:03.879Z,28.44
2018-05-26T16:00:37.028Z,24.07
2018-05-26T16:05:04.238Z,27.56
2018-05-26T16:10:04.237Z,28.58
2018-05-26T16:15:04.243Z,26.86
2018-05-26T16:20:04.256Z,26.04
2018-05-26T16:25:04.262Z,26.76
2018-05-26T16:30:04.248Z,28.15
2018-05-26T16:35:04.273Z,30
2018-05-26T16:40:04.259Z,32.06
2018-05-26T16:45:04.262Z,34.09
2018-05-26T16:50:04.271Z,35.55
2018-05-26T16:55:04.265Z,35.37
2018-05-26T17:00:04.265Z,36.68
2018-05-26T17:05:04.268Z,37.38
2018-05-26T17:10:04.261Z,39.93
2018-05-26T17:15:04.265Z,40.42
2018-05-26T17:20:04.264Z,39.5
2018-05-26T17:25:04.279Z,40.02
2018-05-26T17:30:04.270Z,41.05
2018-05-26T17:35:04.277Z,40.98
2018-05-26T17:40:04.291Z,40.73
2018-05-26T17:45:04.280Z,44.01
2018-05-26T17:50:04.284Z,44.81
2018-05-26T17:55:04.284Z,45.02
2018-05-26T18:00:04.288Z,45.75
2018-05-26T18:05:04.287Z,45.92
2018-05-26T18:10:04.301Z,48.71
2018-05-26T18:15:04.414Z,49.16
2018-05-26T18:20:04.307Z,53.57
2018-05-26T18:25:04.314Z,53.91
2018-05-26T18:30:04.307Z,56.51
2018-05-26T18:35:04.472Z,58.98
2018-05-26T18:40:04.317Z,59.06
2018-05-26T18:45:04.322Z,61.78
2018-05-26T18:50:04.325Z,62.21
2018-05-26T18:55:04.329Z,63.96
2018-05-26T19:00:04.327Z,72.37
2018-05-26T19:05:04.399Z,69.14
2018-05-26T19:10:04.333Z,66.38
2018-05-26T19:15:04.348Z,68.76
2018-05-26T19:20:04.410Z,71.43
2018-05-26T19:25:04.349Z,76.07
2018-05-26T19:30:04.344Z,77.07
2018-05-26T19:35:04.348Z,79.18
2018-05-26T19:40:04.350Z,83.31
2018-05-26T19:45:04.362Z,86.27
2018-05-26T19:50:04.478Z,87.09
2018-05-26T19:55:04.355Z,90.27
2018-05-26T20:00:04.359Z,92.11
2018-05-26T20:05:04.478Z,92.84
2018-05-26T20:10:04.456Z,95.63
2018-05-26T20:15:04.380Z,98.6
